createdAt,value
2023-04-19T00:00:47.949Z,9.90
2023-04-19T00:04:55.876Z,9.90
2023-04-19T00:09:01.824Z,9.80
2023-04-19T00:13:10.548Z,9.80
2023-04-19T00:17:13.624Z,9.70
2023-04-19T00:21:18.322Z,9.70
2023-04-19T00:25:24.925Z,9.70
2023-04-19T00:29:30.024Z,9.70
2023-04-19T00:33:36.005Z,9.70
2023-04-19T00:37:40.431Z,9.70
2023-04-19T00:41:45.669Z,9.70
2023-04-19T00:45:52.106Z,9.80
2023-04-19T00:49:57.783Z,9.80
2023-04-19T00:54:03.947Z,9.80
2023-04-19T00:58:08.395Z,9.80
2023-04-19T01:02:11.882Z,9.80
2023-04-19T01:06:17.255Z,9.80
2023-04-19T01:10:21.696Z,9.70
2023-04-19T01:14:24.727Z,9.80
2023-04-19T01:18:32.909Z,9.70
2023-04-19T01:22:38.129Z,9.70
2023-04-19T01:26:41.178Z,9.70
2023-04-19T01:30:44.716Z,9.70
2023-04-19T01:34:51.097Z,9.70
2023-04-19T01:38:55.578Z,9.70
2023-04-19T01:43:03.594Z,9.60
2023-04-19T01:47:07.028Z,9.50
2023-04-19T01:51:14.155Z,9.50
2023-04-19T01:55:19.273Z,9.50
2023-04-19T01:59:22.275Z,9.50
2023-04-19T02:03:27.765Z,9.50
2023-04-19T02:07:33.702Z,9.60
2023-04-19T02:11:41.083Z,9.60
2023-04-19T02:15:44.092Z,9.60
2023-04-19T02:19:49.452Z,9.60
2023-04-19T02:23:52.554Z,9.50
2023-04-19T02:27:56.951Z,9.50
2023-04-19T02:32:01.294Z,9.40
2023-04-19T02:36:04.551Z,9.30
2023-04-19T02:40:09.401Z,9.20
2023-04-19T02:44:15.146Z,9.10
2023-04-19T02:48:22.529Z,9.10
2023-04-19T02:52:27.200Z,9.10
2023-04-19T02:56:30.205Z,9.00
2023-04-19T03:00:37.594Z,9.00
2023-04-19T03:04:40.984Z,8.90
2023-04-19T03:08:43.993Z,8.90
2023-04-19T03:12:50.550Z,8.90
2023-04-19T03:16:55.198Z,8.80
2023-04-19T03:20:58.471Z,8.80
2023-04-19T03:25:01.477Z,8.70
2023-04-19T03:29:07.482Z,8.70
2023-04-19T03:33:13.696Z,8.60
2023-04-19T03:37:17.202Z,8.60
2023-04-19T03:41:20.852Z,8.50
2023-04-19T03:45:28.194Z,8.50
2023-04-19T03:49:33.839Z,8.50
2023-04-19T03:53:37.683Z,8.40
2023-04-19T03:57:41.107Z,8.40
2023-04-19T04:01:46.090Z,8.30
2023-04-19T04:05:52.491Z,8.30
2023-04-19T04:09:55.521Z,8.20
2023-04-19T04:13:58.592Z,8.20
2023-04-19T04:18:03.968Z,8.20
2023-04-19T04:22:09.754Z,8.20
2023-04-19T04:26:17.427Z,8.10
2023-04-19T04:30:20.558Z,8.10
2023-04-19T04:34:24.688Z,8.10
2023-04-19T04:38:37.693Z,8.20
2023-04-19T04:42:41.409Z,8.20
2023-04-19T04:46:44.456Z,8.20
2023-04-19T04:50:57.508Z,8.20
2023-04-19T04:55:02.067Z,8.20
2023-04-19T04:59:06.207Z,8.20
2023-04-19T05:03:09.292Z,8.20
2023-04-19T05:07:15.407Z,8.30
2023-04-19T05:11:21.023Z,8.40
2023-04-19T05:15:28.942Z,8.50
2023-04-19T05:19:34.720Z,8.70
2023-04-19T05:23:38.483Z,8.80
2023-04-19T05:27:43.010Z,9.00
2023-04-19T05:31:51.043Z,9.10
2023-04-19T05:35:55.154Z,9.30
2023-04-19T05:40:00.776Z,9.50
2023-04-19T05:44:07.471Z,9.70
2023-04-19T05:48:10.590Z,9.70
2023-04-19T05:52:16.125Z,9.70
2023-04-19T05:56:22.196Z,9.70
2023-04-19T06:00:27.796Z,9.80
2023-04-19T06:04:34.092Z,9.90
2023-04-19T06:08:37.330Z,10.00
2023-04-19T06:12:40.746Z,10.20
2023-04-19T06:16:47.819Z,10.20
2023-04-19T06:20:50.905Z,10.40
2023-04-19T06:24:55.349Z,10.40
2023-04-19T06:28:59.199Z,10.40
2023-04-19T06:33:11.096Z,10.40
2023-04-19T06:37:14.771Z,10.50
2023-04-19T06:41:18.437Z,10.50
2023-04-19T06:45:22.195Z,10.50
2023-04-19T06:49:26.579Z,10.40
2023-04-19T06:53:29.758Z,10.40
2023-04-19T06:57:35.671Z,10.30
2023-04-19T07:01:39.226Z,10.30
2023-04-19T07:05:43.956Z,10.30
2023-04-19T07:09:50.954Z,10.30
2023-04-19T07:13:54.346Z,10.30
2023-04-19T07:17:57.370Z,10.30
2023-04-19T07:22:03.318Z,10.30
2023-04-19T07:26:06.417Z,10.20
2023-04-19T07:30:13.189Z,10.20
2023-04-19T07:34:16.469Z,10.00
2023-04-19T07:38:25.148Z,9.80
2023-04-19T07:42:30.688Z,9.70
2023-04-19T07:46:35.947Z,9.60
2023-04-19T07:50:39.106Z,9.60
2023-04-19T07:54:43.556Z,9.60
2023-04-19T07:58:50.698Z,9.50
2023-04-19T08:02:58.303Z,9.50
2023-04-19T08:07:05.043Z,9.50
2023-04-19T08:11:09.445Z,9.60
2023-04-19T08:15:41.148Z,9.60
2023-04-19T08:19:39.685Z,9.60
2023-04-19T08:23:48.378Z,9.60
2023-04-19T08:27:53.005Z,9.70
2023-04-19T08:31:56.313Z,9.80
2023-04-19T08:35:59.412Z,9.80
2023-04-19T08:40:02.765Z,9.90
2023-04-19T08:44:08.665Z,9.90
2023-04-19T08:48:14.770Z,10.00
2023-04-19T08:52:19.165Z,10.00
2023-04-19T08:56:34.916Z,10.00
2023-04-19T09:00:41.390Z,9.90
2023-04-19T09:04:44.664Z,10.00
2023-04-19T09:08:52.534Z,9.90
2023-04-19T09:13:05.187Z,9.90
2023-04-19T09:17:19.023Z,9.90
2023-04-19T09:21:29.733Z,10.00
2023-04-19T09:25:52.392Z,10.00
2023-04-19T09:29:58.842Z,10.10
2023-04-19T09:34:24.242Z,10.10
2023-04-19T09:38:28.487Z,10.10
2023-04-19T09:46:54.086Z,10.10
2023-04-19T09:51:05.822Z,9.90
2023-04-19T09:55:24.928Z,9.60
2023-04-19T09:59:30.344Z,9.40
2023-04-19T10:03:36.610Z,9.10
2023-04-19T10:07:41.856Z,9.10
2023-04-19T10:11:54.431Z,8.90
2023-04-19T10:16:15.683Z,8.80
2023-04-19T10:20:26.165Z,8.70
2023-04-19T10:24:33.071Z,8.60
2023-04-19T10:28:38.358Z,8.60
2023-04-19T10:32:42.484Z,8.50
2023-04-19T10:36:48.941Z,8.40
2023-04-19T10:41:04.262Z,8.30
2023-04-19T10:45:33.074Z,8.30
2023-04-19T10:49:49.022Z,8.30
2023-04-19T10:53:59.016Z,8.40
2023-04-19T10:58:09.257Z,8.40
2023-04-19T11:02:36.437Z,8.50
2023-04-19T11:06:57.410Z,8.80
2023-04-19T11:11:00.828Z,9.20
2023-04-19T11:15:09.513Z,9.60
2023-04-19T11:19:16.297Z,9.70
2023-04-19T11:23:20.053Z,10.00
2023-04-19T11:27:23.134Z,9.90
2023-04-19T11:31:27.671Z,9.90
2023-04-19T11:35:31.526Z,9.90
2023-04-19T11:39:34.546Z,9.80
2023-04-19T11:43:41.376Z,9.80
2023-04-19T11:47:56.901Z,9.70
2023-04-19T11:52:03.111Z,9.80
2023-04-19T11:56:10.550Z,9.80
2023-04-19T12:00:15.116Z,9.90
2023-04-19T12:04:23.624Z,10.00
2023-04-19T12:08:37.820Z,10.10
2023-04-19T12:12:43.665Z,10.20
2023-04-19T12:16:50.188Z,10.40
2023-04-19T12:20:55.398Z,10.40
2023-04-19T12:24:58.541Z,10.50
2023-04-19T12:29:02.853Z,10.70
2023-04-19T12:33:07.120Z,11.10
2023-04-19T12:37:11.967Z,11.60
2023-04-19T12:41:15.320Z,11.90
2023-04-19T12:45:29.112Z,11.90
2023-04-19T12:49:34.448Z,11.70
2023-04-19T12:53:39.199Z,11.70
2023-04-19T12:57:46.090Z,12.00
2023-04-19T13:01:49.139Z,12.30
2023-04-19T13:05:53.251Z,12.30
2023-04-19T13:09:59.969Z,12.20
2023-04-19T13:14:08.764Z,12.40
2023-04-19T13:18:16.893Z,12.50
2023-04-19T13:22:19.910Z,12.30
2023-04-19T13:26:24.550Z,12.20
2023-04-19T13:30:28.130Z,12.10
2023-04-19T13:34:31.249Z,12.00
2023-04-19T13:38:34.338Z,12.30
2023-04-19T13:42:39.084Z,12.70
2023-04-19T13:46:44.905Z,12.50
2023-04-19T13:50:51.104Z,12.70
2023-04-19T13:54:57.267Z,12.90
2023-04-19T13:59:04.413Z,12.70
2023-04-19T14:03:09.861Z,12.40
2023-04-19T14:07:14.914Z,12.20
2023-04-19T14:11:35.225Z,12.60
2023-04-19T14:15:40.389Z,13.20
2023-04-19T14:19:43.802Z,13.90
2023-04-19T14:23:47.366Z,14.80
2023-04-19T14:27:50.680Z,15.30
2023-04-19T14:31:56.111Z,15.80
2023-04-19T14:35:59.163Z,16.30
2023-04-19T14:40:02.238Z,15.80
2023-04-19T14:44:09.236Z,15.30
2023-04-19T14:48:15.407Z,15.60
2023-04-19T14:52:22.614Z,15.70
2023-04-19T14:56:25.811Z,15.30
2023-04-19T15:00:28.863Z,15.10
2023-04-19T15:04:37.397Z,14.80
2023-04-19T15:08:47.066Z,14.60
2023-04-19T15:12:50.049Z,14.30
2023-04-19T15:16:53.116Z,14.20
2023-04-19T15:21:00.313Z,14.40
2023-04-19T15:25:08.330Z,14.60
2023-04-19T15:29:13.488Z,14.40
2023-04-19T15:33:16.636Z,14.40
2023-04-19T15:37:21.162Z,14.50
2023-04-19T15:41:25.225Z,14.60
2023-04-19T15:45:28.627Z,14.60
2023-04-19T15:49:36.633Z,14.60
2023-04-19T15:53:41.313Z,14.60
2023-04-19T15:57:50.776Z,14.50
2023-04-19T16:01:53.931Z,14.50
2023-04-19T16:05:57.004Z,13.90
2023-04-19T16:10:03.421Z,13.50
2023-04-19T16:14:06.501Z,13.00
2023-04-19T16:18:12.516Z,12.70
2023-04-19T16:22:15.751Z,12.50
2023-04-19T16:26:20.162Z,12.40
2023-04-19T16:30:23.613Z,12.30
2023-04-19T16:34:28.115Z,12.20
2023-04-19T16:38:36.963Z,12.60
2023-04-19T16:42:41.856Z,13.20
2023-04-19T16:46:44.893Z,13.60
2023-04-19T16:50:50.457Z,13.80
2023-04-19T16:54:55.214Z,14.10
2023-04-19T16:59:03.465Z,14.10
2023-04-19T17:03:10.953Z,14.30
2023-04-19T17:07:14.255Z,14.20
2023-04-19T17:11:19.772Z,14.10
2023-04-19T17:15:24.435Z,13.70
2023-04-19T17:19:31.470Z,13.10
2023-04-19T17:23:37.237Z,12.50
2023-04-19T17:27:45.580Z,12.10
2023-04-19T17:31:56.178Z,11.70
2023-04-19T17:36:01.501Z,11.40
2023-04-19T17:40:07.298Z,11.20
2023-04-19T17:44:13.164Z,11.00
2023-04-19T17:48:20.201Z,10.80
2023-04-19T17:52:32.126Z,10.60
2023-04-19T17:56:38.750Z,10.40
2023-04-19T18:00:41.802Z,10.30
2023-04-19T18:04:46.450Z,10.20
2023-04-19T18:08:49.970Z,10.00
2023-04-19T18:12:53.884Z,9.90
2023-04-19T18:16:58.517Z,9.70
2023-04-19T18:21:10.021Z,9.60
2023-04-19T18:25:13.178Z,9.40
2023-04-19T18:29:16.749Z,9.30
2023-04-19T18:33:22.385Z,9.10
2023-04-19T18:37:28.763Z,9.00
2023-04-19T18:41:31.820Z,8.80
2023-04-19T18:45:34.965Z,8.70
2023-04-19T18:49:38.083Z,8.60
2023-04-19T18:53:47.511Z,8.50
2023-04-19T18:57:51.532Z,8.30
2023-04-19T19:01:56.772Z,8.20
2023-04-19T19:06:00.642Z,8.10
2023-04-19T19:14:21.552Z,8.00
2023-04-19T19:18:27.632Z,7.90
2023-04-19T19:22:31.161Z,7.90
2023-04-19T19:26:35.598Z,7.80
2023-04-19T19:30:46.125Z,7.70
2023-04-19T19:38:55.988Z,7.50
2023-04-19T19:43:00.859Z,7.40
2023-04-19T19:47:09.372Z,7.30
2023-04-19T19:51:42.211Z,7.30
2023-04-19T19:55:37.211Z,7.20
2023-04-19T19:59:51.345Z,7.00
2023-04-19T20:03:58.731Z,6.90
2023-04-19T20:08:10.163Z,6.90
2023-04-19T20:12:16.690Z,6.80
2023-04-19T20:16:21.230Z,6.60
2023-04-19T20:20:27.134Z,6.50
2023-04-19T20:24:32.283Z,6.40
2023-04-19T20:28:36.686Z,6.30
2023-04-19T20:32:44.225Z,6.20
2023-04-19T20:36:47.762Z,6.20
2023-04-19T20:40:51.063Z,6.10
2023-04-19T20:44:54.077Z,6.10
2023-04-19T20:49:02.821Z,6.00
2023-04-19T20:53:07.110Z,6.00
2023-04-19T20:57:12.336Z,5.90
2023-04-19T21:01:21.228Z,5.80
2023-04-19T21:05:30.056Z,5.80
2023-04-19T21:09:33.116Z,5.70
2023-04-19T21:13:36.286Z,5.70
2023-04-19T21:17:39.412Z,5.60
2023-04-19T21:21:44.120Z,5.60
2023-04-19T21:25:47.730Z,5.50
2023-04-19T21:29:55.715Z,5.50
2023-04-19T21:33:59.026Z,5.40
2023-04-19T21:38:03.737Z,5.40
2023-04-19T21:42:08.591Z,5.30
2023-04-19T21:46:14.271Z,5.30
2023-04-19T21:50:27.316Z,5.20
2023-04-19T21:54:34.219Z,5.20
2023-04-19T21:58:38.398Z,5.10
2023-04-19T22:02:41.646Z,5.10
2023-04-19T22:06:46.597Z,5.00
2023-04-19T22:10:51.494Z,4.90
2023-04-19T22:15:01.809Z,4.90
2023-04-19T22:19:05.213Z,4.80
2023-04-19T22:23:08.568Z,4.70
2023-04-19T22:27:13.195Z,4.70
2023-04-19T22:31:16.515Z,4.60
2023-04-19T22:35:23.785Z,4.50
2023-04-19T22:39:27.232Z,4.50
2023-04-19T22:43:34.573Z,4.50
2023-04-19T22:47:42.656Z,4.50
2023-04-19T22:51:48.411Z,4.40
2023-04-19T22:55:51.545Z,4.40
2023-04-19T22:59:56.112Z,4.40
2023-04-19T23:03:59.815Z,4.30
2023-04-19T23:08:05.855Z,4.20
2023-04-19T23:12:09.085Z,4.00
2023-04-19T23:16:15.853Z,3.80
2023-04-19T23:20:19.062Z,3.50
2023-04-19T23:24:26.044Z,3.40
2023-04-19T23:28:32.621Z,3.30
2023-04-19T23:32:38.259Z,3.30
2023-04-19T23:36:45.559Z,3.30
2023-04-19T23:40:49.753Z,3.30
2023-04-19T23:44:55.066Z,3.30
2023-04-19T23:48:59.482Z,3.20
2023-04-19T23:53:07.342Z,3.10
2023-04-19T23:57:11.226Z,3.20
